sensor_id;sensor_type;location;lat;lon;timestamp;temperature;humidity
6758;DHT22;3416;53.074;8.822;2022-12-10T00:01:31;2.20;99.90
6758;DHT22;3416;53.074;8.822;2022-12-10T00:03:59;2.20;99.90
6758;DHT22;3416;53.074;8.822;2022-12-10T00:06:29;2.20;99.90
6758;DHT22;3416;53.074;8.822;2022-12-10T00:08:56;2.20;99.90
6758;DHT22;3416;53.074;8.822;2022-12-10T00:11:23;2.40;99.90
6758;DHT22;3416;53.074;8.822;2022-12-10T00:13:51;2.40;99.90
6758;DHT22;3416;53.074;8.822;2022-12-10T00:16:19;2.50;99.90
6758;DHT22;3416;53.074;8.822;2022-12-10T00:18:47;2.40;99.90
6758;DHT22;3416;53.074;8.822;2022-12-10T00:21:16;2.50;99.90
6758;DHT22;3416;53.074;8.822;2022-12-10T00:23:45;2.40;99.90
6758;DHT22;3416;53.074;8.822;2022-12-10T00:26:16;2.30;99.90
6758;DHT22;3416;53.074;8.822;2022-12-10T00:28:51;2.40;99.90
6758;DHT22;3416;53.074;8.822;2022-12-10T00:31:20;2.40;99.90
6758;DHT22;3416;53.074;8.822;2022-12-10T00:33:47;2.40;99.90
6758;DHT22;3416;53.074;8.822;2022-12-10T00:36:16;2.50;99.90
6758;DHT22;3416;53.074;8.822;2022-12-10T00:38:47;2.50;99.90
6758;DHT22;3416;53.074;8.822;2022-12-10T00:41:15;2.40;99.90
6758;DHT22;3416;53.074;8.822;2022-12-10T00:43:43;2.40;99.90
6758;DHT22;3416;53.074;8.822;2022-12-10T00:46:11;2.40;99.90
6758;DHT22;3416;53.074;8.822;2022-12-10T00:48:38;2.40;99.90
6758;DHT22;3416;53.074;8.822;2022-12-10T00:51:07;2.40;99.90
6758;DHT22;3416;53.074;8.822;2022-12-10T00:53:35;2.40;99.90
6758;DHT22;3416;53.074;8.822;2022-12-10T00:56:04;2.40;99.90
6758;DHT22;3416;53.074;8.822;2022-12-10T00:58:33;2.50;99.90
6758;DHT22;3416;53.074;8.822;2022-12-10T01:01:09;2.40;99.90
6758;DHT22;3416;53.074;8.822;2022-12-10T01:03:37;2.30;99.90
6758;DHT22;3416;53.074;8.822;2022-12-10T01:06:09;2.40;99.90
6758;DHT22;3416;53.074;8.822;2022-12-10T01:08:36;2.40;99.90
6758;DHT22;3416;53.074;8.822;2022-12-10T01:11:05;2.40;99.90
6758;DHT22;3416;53.074;8.822;2022-12-10T01:13:33;2.30;99.90
6758;DHT22;3416;53.074;8.822;2022-12-10T01:16:01;2.30;99.90
6758;DHT22;3416;53.074;8.822;2022-12-10T01:18:28;2.30;99.90
6758;DHT22;3416;53.074;8.822;2022-12-10T01:20:57;2.30;99.90
6758;DHT22;3416;53.074;8.822;2022-12-10T01:23:27;2.40;99.90
6758;DHT22;3416;53.074;8.822;2022-12-10T01:25:59;2.50;99.90
6758;DHT22;3416;53.074;8.822;2022-12-10T01:28:29;2.40;99.90
6758;DHT22;3416;53.074;8.822;2022-12-10T01:31:01;2.40;99.90
6758;DHT22;3416;53.074;8.822;2022-12-10T01:33:28;2.40;99.90
6758;DHT22;3416;53.074;8.822;2022-12-10T01:35:56;2.40;99.90
6758;DHT22;3416;53.074;8.822;2022-12-10T01:38:23;2.40;99.90
6758;DHT22;3416;53.074;8.822;2022-12-10T01:40:50;2.40;99.90
6758;DHT22;3416;53.074;8.822;2022-12-10T01:43:17;2.40;99.90
6758;DHT22;3416;53.074;8.822;2022-12-10T01:45:45;2.50;99.90
6758;DHT22;3416;53.074;8.822;2022-12-10T01:48:12;2.60;99.90
6758;DHT22;3416;53.074;8.822;2022-12-10T01:50:40;2.50;99.90
6758;DHT22;3416;53.074;8.822;2022-12-10T01:53:07;2.50;99.90
6758;DHT22;3416;53.074;8.822;2022-12-10T01:55:43;2.60;99.90
6758;DHT22;3416;53.074;8.822;2022-12-10T01:58:11;2.60;99.90
6758;DHT22;3416;53.074;8.822;2022-12-10T02:00:47;2.60;99.90
6758;DHT22;3416;53.074;8.822;2022-12-10T02:03:21;2.70;99.90
6758;DHT22;3416;53.074;8.822;2022-12-10T02:05:56;2.60;99.90
6758;DHT22;3416;53.074;8.822;2022-12-10T02:08:27;2.50;99.90
6758;DHT22;3416;53.074;8.822;2022-12-10T02:11:02;2.40;99.90
6758;DHT22;3416;53.074;8.822;2022-12-10T02:13:37;2.50;99.90
6758;DHT22;3416;53.074;8.822;2022-12-10T02:16:12;2.40;99.90
6758;DHT22;3416;53.074;8.822;2022-12-10T02:18:45;2.30;99.90
6758;DHT22;3416;53.074;8.822;2022-12-10T02:21:18;2.40;99.90
6758;DHT22;3416;53.074;8.822;2022-12-10T02:23:49;2.30;99.90
6758;DHT22;3416;53.074;8.822;2022-12-10T02:26:22;2.50;99.90
6758;DHT22;3416;53.074;8.822;2022-12-10T02:29:01;2.40;99.90
6758;DHT22;3416;53.074;8.822;2022-12-10T02:31:32;2.40;99.90
6758;DHT22;3416;53.074;8.822;2022-12-10T02:34:01;2.30;99.90
6758;DHT22;3416;53.074;8.822;2022-12-10T02:36:35;2.30;99.90
6758;DHT22;3416;53.074;8.822;2022-12-10T02:39:07;2.20;99.90
6758;DHT22;3416;53.074;8.822;2022-12-10T02:41:41;2.20;99.90
6758;DHT22;3416;53.074;8.822;2022-12-10T02:44:11;2.30;99.90
6758;DHT22;3416;53.074;8.822;2022-12-10T02:47:01;2.30;99.90
6758;DHT22;3416;53.074;8.822;2022-12-10T02:49:30;2.40;99.90
6758;DHT22;3416;53.074;8.822;2022-12-10T02:51:59;2.40;99.90
6758;DHT22;3416;53.074;8.822;2022-12-10T02:54:38;2.30;99.90
6758;DHT22;3416;53.074;8.822;2022-12-10T02:57:18;2.40;99.90
6758;DHT22;3416;53.074;8.822;2022-12-10T03:00:04;2.20;99.90
6758;DHT22;3416;53.074;8.822;2022-12-10T03:02:39;2.20;99.90
6758;DHT22;3416;53.074;8.822;2022-12-10T03:05:14;2.20;99.90
6758;DHT22;3416;53.074;8.822;2022-12-10T03:07:47;2.30;99.90
6758;DHT22;3416;53.074;8.822;2022-12-10T03:10:24;2.30;99.90
6758;DHT22;3416;53.074;8.822;2022-12-10T03:12:56;2.40;99.90
6758;DHT22;3416;53.074;8.822;2022-12-10T03:15:29;2.40;99.90
6758;DHT22;3416;53.074;8.822;2022-12-10T03:17:59;2.40;99.90
6758;DHT22;3416;53.074;8.822;2022-12-10T03:20:30;2.50;99.90
6758;DHT22;3416;53.074;8.822;2022-12-10T03:22:59;2.40;99.90
6758;DHT22;3416;53.074;8.822;2022-12-10T03:25:29;2.40;99.90
6758;DHT22;3416;53.074;8.822;2022-12-10T03:27:58;2.40;99.90
6758;DHT22;3416;53.074;8.822;2022-12-10T03:30:29;2.40;99.90
6758;DHT22;3416;53.074;8.822;2022-12-10T03:32:57;2.40;99.90
6758;DHT22;3416;53.074;8.822;2022-12-10T03:35:25;2.50;99.90
6758;DHT22;3416;53.074;8.822;2022-12-10T03:37:52;2.50;99.90
6758;DHT22;3416;53.074;8.822;2022-12-10T03:40:22;2.50;99.90
6758;DHT22;3416;53.074;8.822;2022-12-10T03:42:49;2.50;99.90
6758;DHT22;3416;53.074;8.822;2022-12-10T03:45:16;2.40;99.90
6758;DHT22;3416;53.074;8.822;2022-12-10T03:47:45;2.30;99.90
6758;DHT22;3416;53.074;8.822;2022-12-10T03:50:12;2.30;99.90
6758;DHT22;3416;53.074;8.822;2022-12-10T03:52:38;2.30;99.90
6758;DHT22;3416;53.074;8.822;2022-12-10T03:55:06;2.20;99.90
6758;DHT22;3416;53.074;8.822;2022-12-10T03:57:35;2.30;99.90
6758;DHT22;3416;53.074;8.822;2022-12-10T04:00:03;2.30;99.90
6758;DHT22;3416;53.074;8.822;2022-12-10T04:02:31;2.30;99.90
6758;DHT22;3416;53.074;8.822;2022-12-10T04:05:00;2.40;99.90
6758;DHT22;3416;53.074;8.822;2022-12-10T04:07:27;2.30;99.90
6758;DHT22;3416;53.074;8.822;2022-12-10T04:09:54;2.30;99.90
6758;DHT22;3416;53.074;8.822;2022-12-10T04:12:21;2.40;99.90
6758;DHT22;3416;53.074;8.822;2022-12-10T04:14:48;2.50;99.90
6758;DHT22;3416;53.074;8.822;2022-12-10T04:17:32;2.40;99.90
6758;DHT22;3416;53.074;8.822;2022-12-10T04:20:01;2.30;99.90
6758;DHT22;3416;53.074;8.822;2022-12-10T04:22:28;2.30;99.90
6758;DHT22;3416;53.074;8.822;2022-12-10T04:25:12;2.30;99.90
6758;DHT22;3416;53.074;8.822;2022-12-10T04:27:57;2.40;99.90
6758;DHT22;3416;53.074;8.822;2022-12-10T04:30:24;2.40;99.90
6758;DHT22;3416;53.074;8.822;2022-12-10T04:32:51;2.40;99.90
6758;DHT22;3416;53.074;8.822;2022-12-10T04:35:19;2.40;99.90
6758;DHT22;3416;53.074;8.822;2022-12-10T04:37:46;2.30;99.90
6758;DHT22;3416;53.074;8.822;2022-12-10T04:40:13;2.40;99.90
6758;DHT22;3416;53.074;8.822;2022-12-10T04:42:40;2.40;99.90
6758;DHT22;3416;53.074;8.822;2022-12-10T04:45:08;2.40;99.90
6758;DHT22;3416;53.074;8.822;2022-12-10T04:47:35;2.40;99.90
6758;DHT22;3416;53.074;8.822;2022-12-10T04:50:02;2.40;99.90
6758;DHT22;3416;53.074;8.822;2022-12-10T04:52:30;2.40;99.90
6758;DHT22;3416;53.074;8.822;2022-12-10T04:54:57;2.40;99.90
6758;DHT22;3416;53.074;8.822;2022-12-10T04:57:31;2.40;99.90
6758;DHT22;3416;53.074;8.822;2022-12-10T04:59:58;2.40;99.90
6758;DHT22;3416;53.074;8.822;2022-12-10T05:05:38;2.40;99.90
6758;DHT22;3416;53.074;8.822;2022-12-10T05:08:08;2.30;99.90
6758;DHT22;3416;53.074;8.822;2022-12-10T05:10:35;2.30;99.90
6758;DHT22;3416;53.074;8.822;2022-12-10T05:13:02;2.30;99.90
6758;DHT22;3416;53.074;8.822;2022-12-10T05:15:29;2.40;99.90
6758;DHT22;3416;53.074;8.822;2022-12-10T05:17:57;2.60;99.90
6758;DHT22;3416;53.074;8.822;2022-12-10T05:20:24;2.50;99.90
6758;DHT22;3416;53.074;8.822;2022-12-10T05:22:51;2.50;99.90
6758;DHT22;3416;53.074;8.822;2022-12-10T05:25:37;2.50;99.90
6758;DHT22;3416;53.074;8.822;2022-12-10T05:28:18;2.60;99.90
6758;DHT22;3416;53.074;8.822;2022-12-10T05:30:45;2.60;99.90
6758;DHT22;3416;53.074;8.822;2022-12-10T05:33:12;2.50;99.90
6758;DHT22;3416;53.074;8.822;2022-12-10T05:35:39;2.50;99.90
6758;DHT22;3416;53.074;8.822;2022-12-10T05:38:06;2.60;99.90
6758;DHT22;3416;53.074;8.822;2022-12-10T05:40:34;2.70;99.90
6758;DHT22;3416;53.074;8.822;2022-12-10T05:43:02;2.60;99.90
6758;DHT22;3416;53.074;8.822;2022-12-10T05:45:32;2.50;99.90
6758;DHT22;3416;53.074;8.822;2022-12-10T05:47:59;2.50;99.90
6758;DHT22;3416;53.074;8.822;2022-12-10T05:50:26;2.50;99.90
6758;DHT22;3416;53.074;8.822;2022-12-10T05:52:53;2.50;99.90
6758;DHT22;3416;53.074;8.822;2022-12-10T05:55:20;2.50;99.90
6758;DHT22;3416;53.074;8.822;2022-12-10T05:57:47;2.30;99.90
6758;DHT22;3416;53.074;8.822;2022-12-10T06:00:16;2.50;99.90
6758;DHT22;3416;53.074;8.822;2022-12-10T06:02:43;2.50;99.90
6758;DHT22;3416;53.074;8.822;2022-12-10T06:05:10;2.40;99.90
6758;DHT22;3416;53.074;8.822;2022-12-10T06:07:37;2.30;99.90
6758;DHT22;3416;53.074;8.822;2022-12-10T06:10:04;2.40;99.90
6758;DHT22;3416;53.074;8.822;2022-12-10T06:12:31;2.40;99.90
6758;DHT22;3416;53.074;8.822;2022-12-10T06:14:58;2.50;99.90
6758;DHT22;3416;53.074;8.822;2022-12-10T06:17:28;2.50;99.90
6758;DHT22;3416;53.074;8.822;2022-12-10T06:19:55;2.40;99.90
6758;DHT22;3416;53.074;8.822;2022-12-10T06:22:22;2.50;99.90
6758;DHT22;3416;53.074;8.822;2022-12-10T06:24:49;2.60;99.90
6758;DHT22;3416;53.074;8.822;2022-12-10T06:27:16;2.70;99.90
6758;DHT22;3416;53.074;8.822;2022-12-10T06:29:44;2.60;99.90
6758;DHT22;3416;53.074;8.822;2022-12-10T06:32:11;2.60;99.90
6758;DHT22;3416;53.074;8.822;2022-12-10T06:34:39;2.70;99.90
6758;DHT22;3416;53.074;8.822;2022-12-10T06:37:06;2.60;99.90
6758;DHT22;3416;53.074;8.822;2022-12-10T06:39:33;2.60;99.90
6758;DHT22;3416;53.074;8.822;2022-12-10T06:42:00;2.60;99.90
6758;DHT22;3416;53.074;8.822;2022-12-10T06:44:27;2.60;99.90
6758;DHT22;3416;53.074;8.822;2022-12-10T06:46:54;2.60;99.90
6758;DHT22;3416;53.074;8.822;2022-12-10T06:49:21;2.60;99.90
6758;DHT22;3416;53.074;8.822;2022-12-10T06:51:49;2.60;99.90
6758;DHT22;3416;53.074;8.822;2022-12-10T06:54:16;2.50;99.90
6758;DHT22;3416;53.074;8.822;2022-12-10T06:56:44;2.50;99.90
6758;DHT22;3416;53.074;8.822;2022-12-10T06:59:11;2.60;99.90
6758;DHT22;3416;53.074;8.822;2022-12-10T07:01:38;2.50;99.90
6758;DHT22;3416;53.074;8.822;2022-12-10T07:04:06;2.50;99.90
6758;DHT22;3416;53.074;8.822;2022-12-10T07:06:34;2.40;99.90
6758;DHT22;3416;53.074;8.822;2022-12-10T07:09:03;2.40;99.90
6758;DHT22;3416;53.074;8.822;2022-12-10T07:11:30;2.50;99.90
6758;DHT22;3416;53.074;8.822;2022-12-10T07:13:58;2.40;99.90
6758;DHT22;3416;53.074;8.822;2022-12-10T07:16:26;2.50;99.90
6758;DHT22;3416;53.074;8.822;2022-12-10T07:18:55;2.50;99.90
6758;DHT22;3416;53.074;8.822;2022-12-10T07:21:24;2.50;99.90
6758;DHT22;3416;53.074;8.822;2022-12-10T07:23:52;2.50;99.90
6758;DHT22;3416;53.074;8.822;2022-12-10T07:26:22;2.60;99.90
6758;DHT22;3416;53.074;8.822;2022-12-10T07:28:49;2.50;99.90
6758;DHT22;3416;53.074;8.822;2022-12-10T07:31:16;2.40;99.90
6758;DHT22;3416;53.074;8.822;2022-12-10T07:33:43;2.30;99.90
6758;DHT22;3416;53.074;8.822;2022-12-10T07:36:11;2.30;99.90
6758;DHT22;3416;53.074;8.822;2022-12-10T07:38:41;2.30;99.90
6758;DHT22;3416;53.074;8.822;2022-12-10T07:41:10;2.30;99.90
6758;DHT22;3416;53.074;8.822;2022-12-10T07:43:42;2.40;99.90
6758;DHT22;3416;53.074;8.822;2022-12-10T07:46:11;2.50;99.90
6758;DHT22;3416;53.074;8.822;2022-12-10T07:48:39;2.50;99.90
6758;DHT22;3416;53.074;8.822;2022-12-10T07:51:06;2.50;99.90
6758;DHT22;3416;53.074;8.822;2022-12-10T07:53:34;2.60;99.90
6758;DHT22;3416;53.074;8.822;2022-12-10T07:56:01;2.70;99.90
6758;DHT22;3416;53.074;8.822;2022-12-10T07:58:30;2.70;99.90
6758;DHT22;3416;53.074;8.822;2022-12-10T08:00:58;2.80;99.90
6758;DHT22;3416;53.074;8.822;2022-12-10T08:03:25;2.80;99.90
6758;DHT22;3416;53.074;8.822;2022-12-10T08:06:01;2.70;99.90
6758;DHT22;3416;53.074;8.822;2022-12-10T08:08:28;2.60;99.90
6758;DHT22;3416;53.074;8.822;2022-12-10T08:10:55;2.60;99.90
6758;DHT22;3416;53.074;8.822;2022-12-10T08:13:22;2.60;99.90
6758;DHT22;3416;53.074;8.822;2022-12-10T08:15:49;2.60;99.90
6758;DHT22;3416;53.074;8.822;2022-12-10T08:18:17;2.60;99.90
6758;DHT22;3416;53.074;8.822;2022-12-10T08:20:55;2.70;99.90
6758;DHT22;3416;53.074;8.822;2022-12-10T08:23:22;2.70;99.90
6758;DHT22;3416;53.074;8.822;2022-12-10T08:25:53;2.60;99.90
6758;DHT22;3416;53.074;8.822;2022-12-10T08:28:20;2.90;99.90
6758;DHT22;3416;53.074;8.822;2022-12-10T08:30:48;3.40;99.90
6758;DHT22;3416;53.074;8.822;2022-12-10T08:33:16;3.40;99.90
6758;DHT22;3416;53.074;8.822;2022-12-10T08:35:43;3.40;99.90
6758;DHT22;3416;53.074;8.822;2022-12-10T08:38:10;3.80;99.90
6758;DHT22;3416;53.074;8.822;2022-12-10T08:40:39;3.80;99.90
6758;DHT22;3416;53.074;8.822;2022-12-10T08:43:06;4.00;99.90
6758;DHT22;3416;53.074;8.822;2022-12-10T08:45:33;4.20;99.90
6758;DHT22;3416;53.074;8.822;2022-12-10T08:48:03;4.20;99.90
6758;DHT22;3416;53.074;8.822;2022-12-10T08:50:31;4.10;99.90
6758;DHT22;3416;53.074;8.822;2022-12-10T08:52:59;3.90;99.90
6758;DHT22;3416;53.074;8.822;2022-12-10T08:55:26;3.80;99.90
6758;DHT22;3416;53.074;8.822;2022-12-10T08:57:53;3.70;99.90
6758;DHT22;3416;53.074;8.822;2022-12-10T09:00:21;3.80;99.90
6758;DHT22;3416;53.074;8.822;2022-12-10T09:02:47;4.10;99.90
6758;DHT22;3416;53.074;8.822;2022-12-10T09:05:16;4.30;99.90
6758;DHT22;3416;53.074;8.822;2022-12-10T09:07:44;4.60;99.90
6758;DHT22;3416;53.074;8.822;2022-12-10T09:10:11;4.70;99.90
6758;DHT22;3416;53.074;8.822;2022-12-10T09:12:38;4.60;99.90
6758;DHT22;3416;53.074;8.822;2022-12-10T09:15:08;4.70;99.90
6758;DHT22;3416;53.074;8.822;2022-12-10T09:17:36;4.90;99.90
6758;DHT22;3416;53.074;8.822;2022-12-10T09:20:05;5.10;99.90
6758;DHT22;3416;53.074;8.822;2022-12-10T09:22:32;5.10;99.90
6758;DHT22;3416;53.074;8.822;2022-12-10T09:25:04;4.90;99.90
6758;DHT22;3416;53.074;8.822;2022-12-10T09:27:31;4.80;99.90
6758;DHT22;3416;53.074;8.822;2022-12-10T09:29:58;4.60;99.90
6758;DHT22;3416;53.074;8.822;2022-12-10T09:32:25;4.40;99.90
6758;DHT22;3416;53.074;8.822;2022-12-10T09:34:53;4.00;99.90
6758;DHT22;3416;53.074;8.822;2022-12-10T09:37:20;4.00;99.90
6758;DHT22;3416;53.074;8.822;2022-12-10T09:39:48;3.80;99.90
6758;DHT22;3416;53.074;8.822;2022-12-10T09:42:28;3.80;99.90
6758;DHT22;3416;53.074;8.822;2022-12-10T09:45:02;3.60;99.90
6758;DHT22;3416;53.074;8.822;2022-12-10T09:47:36;3.50;99.90
6758;DHT22;3416;53.074;8.822;2022-12-10T09:50:14;3.40;99.90
6758;DHT22;3416;53.074;8.822;2022-12-10T09:52:44;3.30;99.90
6758;DHT22;3416;53.074;8.822;2022-12-10T09:55:15;3.10;99.90
6758;DHT22;3416;53.074;8.822;2022-12-10T09:57:46;3.40;99.90
6758;DHT22;3416;53.074;8.822;2022-12-10T10:00:22;3.40;99.90
6758;DHT22;3416;53.074;8.822;2022-12-10T10:02:50;3.40;99.90
6758;DHT22;3416;53.074;8.822;2022-12-10T10:05:20;3.30;99.90
6758;DHT22;3416;53.074;8.822;2022-12-10T10:07:50;3.20;99.90
6758;DHT22;3416;53.074;8.822;2022-12-10T10:10:23;3.10;99.90
6758;DHT22;3416;53.074;8.822;2022-12-10T10:12:54;3.20;99.90
6758;DHT22;3416;53.074;8.822;2022-12-10T10:15:28;3.20;99.90
6758;DHT22;3416;53.074;8.822;2022-12-10T10:17:59;3.30;99.90
6758;DHT22;3416;53.074;8.822;2022-12-10T10:20:29;3.30;99.90
6758;DHT22;3416;53.074;8.822;2022-12-10T10:22:58;3.30;99.90
6758;DHT22;3416;53.074;8.822;2022-12-10T10:25:27;3.40;99.90
6758;DHT22;3416;53.074;8.822;2022-12-10T10:27:56;3.50;99.90
6758;DHT22;3416;53.074;8.822;2022-12-10T10:30:23;3.50;99.90
6758;DHT22;3416;53.074;8.822;2022-12-10T10:32:52;3.60;99.90
6758;DHT22;3416;53.074;8.822;2022-12-10T10:35:23;3.70;99.90
6758;DHT22;3416;53.074;8.822;2022-12-10T10:37:52;3.70;99.90
6758;DHT22;3416;53.074;8.822;2022-12-10T10:40:29;3.70;99.90
6758;DHT22;3416;53.074;8.822;2022-12-10T10:42:58;3.60;99.90
6758;DHT22;3416;53.074;8.822;2022-12-10T10:45:40;3.70;99.90
6758;DHT22;3416;53.074;8.822;2022-12-10T10:48:12;3.70;99.90
6758;DHT22;3416;53.074;8.822;2022-12-10T10:50:41;3.80;99.90
6758;DHT22;3416;53.074;8.822;2022-12-10T10:53:28;3.70;99.90
6758;DHT22;3416;53.074;8.822;2022-12-10T10:55:58;3.80;99.90
6758;DHT22;3416;53.074;8.822;2022-12-10T10:58:31;3.90;99.90
6758;DHT22;3416;53.074;8.822;2022-12-10T11:01:00;3.70;99.90
6758;DHT22;3416;53.074;8.822;2022-12-10T11:03:28;3.70;99.90
6758;DHT22;3416;53.074;8.822;2022-12-10T11:05:57;3.70;99.90
6758;DHT22;3416;53.074;8.822;2022-12-10T11:08:26;3.80;99.90
6758;DHT22;3416;53.074;8.822;2022-12-10T11:11:01;3.70;99.90
6758;DHT22;3416;53.074;8.822;2022-12-10T11:13:33;3.70;99.90
6758;DHT22;3416;53.074;8.822;2022-12-10T11:16:09;3.70;99.90
6758;DHT22;3416;53.074;8.822;2022-12-10T11:18:39;3.80;99.90
6758;DHT22;3416;53.074;8.822;2022-12-10T11:21:16;3.90;99.90
6758;DHT22;3416;53.074;8.822;2022-12-10T11:23:46;3.90;99.90
6758;DHT22;3416;53.074;8.822;2022-12-10T11:29:29;4.20;99.90
6758;DHT22;3416;53.074;8.822;2022-12-10T11:32:09;4.10;99.90
6758;DHT22;3416;53.074;8.822;2022-12-10T11:34:50;4.00;99.90
6758;DHT22;3416;53.074;8.822;2022-12-10T11:37:24;4.00;99.90
6758;DHT22;3416;53.074;8.822;2022-12-10T11:40:15;4.00;99.90
6758;DHT22;3416;53.074;8.822;2022-12-10T11:42:52;3.80;99.90
6758;DHT22;3416;53.074;8.822;2022-12-10T11:45:26;3.80;99.90
6758;DHT22;3416;53.074;8.822;2022-12-10T11:48:07;3.80;99.90
6758;DHT22;3416;53.074;8.822;2022-12-10T11:50:42;3.70;99.90
6758;DHT22;3416;53.074;8.822;2022-12-10T11:53:26;3.90;99.90
6758;DHT22;3416;53.074;8.822;2022-12-10T11:56:04;3.70;99.90
6758;DHT22;3416;53.074;8.822;2022-12-10T11:58:46;3.60;99.90
6758;DHT22;3416;53.074;8.822;2022-12-10T12:01:23;3.50;99.90
6758;DHT22;3416;53.074;8.822;2022-12-10T12:04:04;3.40;99.90
6758;DHT22;3416;53.074;8.822;2022-12-10T12:06:50;3.50;99.90
6758;DHT22;3416;53.074;8.822;2022-12-10T12:09:26;3.40;99.90
6758;DHT22;3416;53.074;8.822;2022-12-10T12:12:08;3.40;99.90
6758;DHT22;3416;53.074;8.822;2022-12-10T12:14:43;3.60;99.90
6758;DHT22;3416;53.074;8.822;2022-12-10T12:17:18;3.80;99.90
6758;DHT22;3416;53.074;8.822;2022-12-10T12:19:48;3.70;99.90
6758;DHT22;3416;53.074;8.822;2022-12-10T12:22:22;3.70;99.90
6758;DHT22;3416;53.074;8.822;2022-12-10T12:24:53;3.80;99.90
6758;DHT22;3416;53.074;8.822;2022-12-10T12:27:26;3.70;99.90
6758;DHT22;3416;53.074;8.822;2022-12-10T12:30:06;3.80;99.90
6758;DHT22;3416;53.074;8.822;2022-12-10T12:32:44;3.60;99.90
6758;DHT22;3416;53.074;8.822;2022-12-10T12:35:18;3.50;99.90
6758;DHT22;3416;53.074;8.822;2022-12-10T12:37:53;3.50;99.90
6758;DHT22;3416;53.074;8.822;2022-12-10T12:40:27;3.60;99.90
6758;DHT22;3416;53.074;8.822;2022-12-10T12:42:59;3.60;99.90
6758;DHT22;3416;53.074;8.822;2022-12-10T12:45:33;3.70;99.90
6758;DHT22;3416;53.074;8.822;2022-12-10T12:48:11;3.80;99.90
6758;DHT22;3416;53.074;8.822;2022-12-10T12:50:43;3.80;99.90
6758;DHT22;3416;53.074;8.822;2022-12-10T12:53:13;3.80;99.90
6758;DHT22;3416;53.074;8.822;2022-12-10T12:55:46;3.80;99.90
6758;DHT22;3416;53.074;8.822;2022-12-10T12:58:22;3.60;99.90
6758;DHT22;3416;53.074;8.822;2022-12-10T13:00:55;3.50;99.90
6758;DHT22;3416;53.074;8.822;2022-12-10T13:03:41;3.50;99.90
6758;DHT22;3416;53.074;8.822;2022-12-10T13:06:13;3.30;99.90
6758;DHT22;3416;53.074;8.822;2022-12-10T13:08:45;3.20;99.90
6758;DHT22;3416;53.074;8.822;2022-12-10T13:11:32;3.20;99.90
6758;DHT22;3416;53.074;8.822;2022-12-10T13:14:17;3.30;99.90
6758;DHT22;3416;53.074;8.822;2022-12-10T13:17:05;3.40;99.90
6758;DHT22;3416;53.074;8.822;2022-12-10T13:19:44;3.30;99.90
6758;DHT22;3416;53.074;8.822;2022-12-10T13:22:12;3.30;99.90
6758;DHT22;3416;53.074;8.822;2022-12-10T13:25:09;3.40;99.90
6758;DHT22;3416;53.074;8.822;2022-12-10T13:27:38;3.30;99.90
6758;DHT22;3416;53.074;8.822;2022-12-10T13:30:33;3.30;99.90
6758;DHT22;3416;53.074;8.822;2022-12-10T13:33:15;3.30;99.90
6758;DHT22;3416;53.074;8.822;2022-12-10T13:35:51;3.40;99.90
6758;DHT22;3416;53.074;8.822;2022-12-10T13:38:23;3.40;99.90
6758;DHT22;3416;53.074;8.822;2022-12-10T13:41:02;3.50;99.90
6758;DHT22;3416;53.074;8.822;2022-12-10T13:43:56;3.30;99.90
6758;DHT22;3416;53.074;8.822;2022-12-10T13:46:55;3.20;99.90
6758;DHT22;3416;53.074;8.822;2022-12-10T13:49:23;3.10;99.90
6758;DHT22;3416;53.074;8.822;2022-12-10T13:52:03;3.10;99.90
6758;DHT22;3416;53.074;8.822;2022-12-10T13:55:04;3.00;99.90
6758;DHT22;3416;53.074;8.822;2022-12-10T14:00:57;3.00;99.90
6758;DHT22;3416;53.074;8.822;2022-12-10T14:03:49;3.10;99.90
6758;DHT22;3416;53.074;8.822;2022-12-10T14:06:20;3.10;99.90
6758;DHT22;3416;53.074;8.822;2022-12-10T14:08:57;3.10;99.90
6758;DHT22;3416;53.074;8.822;2022-12-10T14:11:28;3.10;99.90
6758;DHT22;3416;53.074;8.822;2022-12-10T14:13:58;3.10;99.90
6758;DHT22;3416;53.074;8.822;2022-12-10T14:16:28;3.10;99.90
6758;DHT22;3416;53.074;8.822;2022-12-10T14:19:00;3.20;99.90
6758;DHT22;3416;53.074;8.822;2022-12-10T14:21:32;3.20;99.90
6758;DHT22;3416;53.074;8.822;2022-12-10T14:24:02;3.30;99.90
6758;DHT22;3416;53.074;8.822;2022-12-10T14:26:31;3.30;99.90
6758;DHT22;3416;53.074;8.822;2022-12-10T14:29:00;3.20;99.90
6758;DHT22;3416;53.074;8.822;2022-12-10T14:31:30;3.10;99.90
6758;DHT22;3416;53.074;8.822;2022-12-10T14:34:01;3.30;99.90
6758;DHT22;3416;53.074;8.822;2022-12-10T14:36:32;3.10;99.90
6758;DHT22;3416;53.074;8.822;2022-12-10T14:39:01;3.00;99.90
6758;DHT22;3416;53.074;8.822;2022-12-10T14:41:30;3.00;99.90
6758;DHT22;3416;53.074;8.822;2022-12-10T14:44:02;3.00;99.90
6758;DHT22;3416;53.074;8.822;2022-12-10T14:46:31;3.00;99.90
6758;DHT22;3416;53.074;8.822;2022-12-10T14:48:59;3.00;99.90
6758;DHT22;3416;53.074;8.822;2022-12-10T14:51:31;2.90;99.90
6758;DHT22;3416;53.074;8.822;2022-12-10T14:54:00;3.00;99.90
6758;DHT22;3416;53.074;8.822;2022-12-10T14:56:30;2.90;99.90
6758;DHT22;3416;53.074;8.822;2022-12-10T14:59:04;2.80;99.90
6758;DHT22;3416;53.074;8.822;2022-12-10T15:01:36;2.70;99.90
6758;DHT22;3416;53.074;8.822;2022-12-10T15:04:11;2.70;99.90
6758;DHT22;3416;53.074;8.822;2022-12-10T15:06:39;2.80;99.90
6758;DHT22;3416;53.074;8.822;2022-12-10T15:09:13;2.70;99.90
6758;DHT22;3416;53.074;8.822;2022-12-10T15:11:42;2.60;99.90
6758;DHT22;3416;53.074;8.822;2022-12-10T15:14:15;2.60;99.90
6758;DHT22;3416;53.074;8.822;2022-12-10T15:16:44;2.70;99.90
6758;DHT22;3416;53.074;8.822;2022-12-10T15:19:21;2.60;99.90
6758;DHT22;3416;53.074;8.822;2022-12-10T15:21:50;2.60;99.90
6758;DHT22;3416;53.074;8.822;2022-12-10T15:24:21;2.80;99.90
6758;DHT22;3416;53.074;8.822;2022-12-10T15:26:52;2.60;99.90
6758;DHT22;3416;53.074;8.822;2022-12-10T15:29:34;2.60;99.90
6758;DHT22;3416;53.074;8.822;2022-12-10T15:32:05;2.60;99.90
6758;DHT22;3416;53.074;8.822;2022-12-10T15:34:39;2.60;99.90
6758;DHT22;3416;53.074;8.822;2022-12-10T15:37:16;2.50;99.90
6758;DHT22;3416;53.074;8.822;2022-12-10T15:39:49;2.50;99.90
6758;DHT22;3416;53.074;8.822;2022-12-10T15:42:37;2.50;99.90
6758;DHT22;3416;53.074;8.822;2022-12-10T15:45:12;2.50;99.90
6758;DHT22;3416;53.074;8.822;2022-12-10T15:47:42;2.50;99.90
6758;DHT22;3416;53.074;8.822;2022-12-10T15:50:10;2.50;99.90
6758;DHT22;3416;53.074;8.822;2022-12-10T15:52:38;2.40;99.90
6758;DHT22;3416;53.074;8.822;2022-12-10T15:55:07;2.40;99.90
6758;DHT22;3416;53.074;8.822;2022-12-10T15:57:36;2.40;99.90
6758;DHT22;3416;53.074;8.822;2022-12-10T16:00:06;2.40;99.90
6758;DHT22;3416;53.074;8.822;2022-12-10T16:02:37;2.40;99.90
6758;DHT22;3416;53.074;8.822;2022-12-10T16:05:12;2.40;99.90
6758;DHT22;3416;53.074;8.822;2022-12-10T16:07:39;2.50;99.90
6758;DHT22;3416;53.074;8.822;2022-12-10T16:10:09;2.40;99.90
6758;DHT22;3416;53.074;8.822;2022-12-10T16:12:38;2.40;99.90
6758;DHT22;3416;53.074;8.822;2022-12-10T16:15:07;2.30;99.90
6758;DHT22;3416;53.074;8.822;2022-12-10T16:17:35;2.40;99.90
6758;DHT22;3416;53.074;8.822;2022-12-10T16:20:18;2.40;99.90
6758;DHT22;3416;53.074;8.822;2022-12-10T16:22:47;2.40;99.90
6758;DHT22;3416;53.074;8.822;2022-12-10T16:25:16;2.30;99.90
6758;DHT22;3416;53.074;8.822;2022-12-10T16:27:43;2.30;99.90
6758;DHT22;3416;53.074;8.822;2022-12-10T16:30:23;2.30;99.90
6758;DHT22;3416;53.074;8.822;2022-12-10T16:32:51;2.30;99.90
6758;DHT22;3416;53.074;8.822;2022-12-10T16:35:20;2.30;99.90
6758;DHT22;3416;53.074;8.822;2022-12-10T16:37:48;2.30;99.90
6758;DHT22;3416;53.074;8.822;2022-12-10T16:40:27;2.30;99.90
6758;DHT22;3416;53.074;8.822;2022-12-10T16:42:55;2.20;99.90
6758;DHT22;3416;53.074;8.822;2022-12-10T16:45:30;2.20;99.90
6758;DHT22;3416;53.074;8.822;2022-12-10T16:47:58;2.20;99.90
6758;DHT22;3416;53.074;8.822;2022-12-10T16:50:25;2.30;99.90
6758;DHT22;3416;53.074;8.822;2022-12-10T16:52:52;2.20;99.90